Terminal Aerodrome Forecast
Issued by NWS

Current Version | Previous Version | Graphics & Text | Print | Product List | Glossary On
Versions: 1 2 3 4 5 6 7 8 9 10 11 12 13 14 15 16 17 18
000
FTUS41 KILN 252000 AAB
TAFLUK
TAF AMD
KLUK 252058Z 2521/2618 08010KT 5SM BR VCTS OVC012CB
      TEMPO 2521/2523 2SM SHRA OVC008
     FM252300 06012G20KT P6SM VCSH OVC008
     FM260800 02012G20KT P6SM SCT008 BKN035
     FM261300 01013KT P6SM SCT035=

USA.gov is the U.S. government's official web portal to all federal, state and local government web resources and services.